Motte Rimrock Reserve, California Weather observations

Data are for 10 minute period ending at time listed.
 Day   Time   Solar   Ave.   Ave.  Ave.  Vector  Max.   Baro.   Total    
  of    of     Rad.   Air    Rel.  Wind   Wind   Wind  Press.  Precip.   
Year   Day            Temp.  Hum.  Speed  Dir.   Gust                    
2017   (PST)  Kw/m2    F      %     mph   deg.    mph    mb.     in.     
-------------------------------------------------------------------------
 113    3:00   0.00   60.2    47    4.4   134     5.9   943.4    0.00 
 113    3:10   0.00   60.5    46    3.2   133     4.5   943.4    0.00 
 113    3:20   0.00   60.6    46    1.4   129     2.8   943.4    0.00 
 113    3:30   0.00   60.9    47    2.2    75     3.1   943.3    0.00 
 113    3:40   0.00   60.4    48    3.7    73     5.6   943.1    0.00 
 113    3:50   0.00   58.2    51    5.0    95     5.8   943.1    0.00 
 113    4:00   0.00   57.9    51    3.0   105     5.1   943.1    0.00 
 113    4:10   0.00   57.5    52    1.3   203     2.9   943.1    0.00 
 113    4:20   0.00   57.6    52    0.8   195     2.5   943.1    0.00 
 113    4:30   0.00   57.8    52    2.9   129     5.8   943.1    0.00 
 113    4:40   0.00   57.0    55    7.0   113     8.1   943.1    0.00 
 113    4:50   0.00   58.1    49    7.3    99     8.8   943.2    0.00 
 113    5:00   0.00   57.7    50    7.1   110     8.1   943.2    0.00 
 113    5:10   0.00   55.5    54    5.3   145     7.5   943.3    0.00 
 113    5:20   0.00   55.1    55    5.5   178     7.0   943.4    0.00 
 113    5:30   0.01   56.0    55    4.4   197     6.4   943.5    0.00 
 113    5:40   0.03   56.6    55    3.8   169     4.9   943.6    0.00 
 113    5:50   0.05   56.9    56    4.0   152     5.7   943.6    0.00 
 113    6:00   0.07   57.3    57    4.3   148     5.3   943.7    0.00 
 113    6:10   0.07   58.2    58    4.3   152     5.8   943.7    0.00 
 113    6:20   0.08   58.4    57    2.9   169     4.5   943.8    0.00 
 113    6:30   0.09   58.5    57    3.6   153     4.7   943.9    0.00 
 113    6:40   0.12   59.3    56    3.3   139     5.3   943.8    0.00 
 113    6:50   0.20   61.2    52    2.8   167     4.1   943.9    0.00 
 113    7:00   0.22   62.5    49    2.1   180     3.7   944.1    0.00 
 113    7:10   0.26   62.7    48    3.7   159     5.1   944.3    0.00 
 113    7:20   0.37   64.5    45    3.0   164     4.9   944.4    0.00 
 113    7:30   0.40   65.9    43    2.7   184     4.4   944.7    0.00 
 113    7:40   0.44   66.4    42    2.7   219     4.6   944.8    0.00 
 113    7:50   0.49   67.7    38    2.0   214     4.3   945.0    0.00 
 113    8:00   0.54   69.3    34    2.3   181     4.7   944.9    0.00 
 113    8:10   0.54   70.6    31    2.2   207     8.0   944.9    0.00 
 113    8:20   0.56   70.5    30    4.9   159     8.8   944.9    0.00 
 113    8:30   0.62   70.6    31    5.2   162     8.2   944.9    0.00 
 113    8:40   0.65   71.5    31    5.6   160    11.1   944.8    0.00 
 113    8:50   0.68   71.9    30    6.9   150    10.2   944.7    0.00 
 113    9:00   0.71   72.3    29    7.6   148    10.7   944.7    0.00 
 113    9:10   0.74   73.0    28    6.5   159    11.7   944.8    0.00 
 113    9:20   0.76   73.8    28    7.5   170    11.5   944.8    0.00 
 113    9:30   0.78   73.8    28    6.9   170    11.0   944.6    0.00 
 113    9:40   0.81   75.7    27    7.8   147    13.3   944.6    0.00 
 113    9:50   0.83   76.2    24    8.1   143    14.4   944.5    0.00 
 113   10:00   0.85   77.3    22    5.9   169    11.7   944.6    0.00 
 113   10:10   0.86   77.6    21    6.1   220    12.2   944.7    0.00 
 113   10:20   0.89   78.5    20    5.0   186    11.8   944.6    0.00 
 113   10:30   0.91   78.7    21    5.0   172    11.8   944.6    0.00 
 113   10:40   0.92   79.2    21    8.1   186    12.8   944.3    0.00 
 113   10:50   0.94   79.0    22    7.0   198    12.9   944.3    0.00 
 113   11:00   0.94   79.9    22    5.6   244     9.9   944.1    0.00 
 113   11:10   0.95   80.3    21    6.6   220    11.7   944.0    0.00 
 113   11:20   0.95   79.6    21    7.5   203    12.1   943.9    0.00 
 113   11:30   0.96   79.6    22    8.0   192    13.7   943.7    0.00 
 113   11:40   0.96   80.3    21    6.7   184    14.0   943.6    0.00 
 113   11:50   0.96   80.9    20    6.3   222    11.8   943.5    0.00 
 113   12:00   0.96   81.0    20    8.8   195    15.9   943.4    0.00 
 113   12:10   0.96   80.2    21    7.7   218    12.6   943.3    0.00 
 113   12:20   0.95   80.8    20    7.4   198    14.3   943.2    0.00 
 113   12:30   0.94   80.8    23   11.5   203    17.7   943.2    0.00 
 113   12:40   0.92   80.9    25    8.7   175    16.0   943.2    0.00 
 113   12:50   0.92   80.5    25   10.1   190    14.9   943.2    0.00 
 113   13:00   0.90   80.8    25    8.8   175    15.2   943.1    0.00 
 113   13:10   0.86   80.3    25   10.8   164    17.0   942.9    0.00 
 113   13:20   0.88   81.1    23   12.4   157    20.5   942.9    0.00 
 113   13:30   0.87   81.7    22    7.4   188    14.2   943.0    0.00 
 113   13:40   0.85   81.5    23    8.1   171    15.4   942.8    0.00 
 113   13:50   0.83   81.5    23    8.6   191    17.8   942.8    0.00 
 113   14:00   0.81   81.5    23    7.6   202    14.6   942.5    0.00 
 113   14:10   0.79   81.1    24   10.3   173    20.3   942.4    0.00 
 113   14:20   0.76   80.9    25    9.4   164    18.9   942.3    0.00 
 113   14:30   0.73   79.9    26   11.8   173    19.2   942.3    0.00 
 113   14:40   0.70   81.3    27    8.3   215    15.0   942.2    0.00 
 113   14:50   0.69   81.1    27    8.2   214    13.7   942.1    0.00 
 113   15:00   0.66   80.4    28    9.0   227    16.0   942.0    0.00 
 113   15:10   0.62   80.6    28    5.1   231    12.5   942.1    0.00 
 113   15:20   0.60   80.6    28    8.3   321    14.7   941.9    0.00 
 113   15:30   0.58   79.8    29    8.2   314    13.7   941.9    0.00 
 113   15:40   0.54   79.0    29   10.9   307    15.5   941.9    0.00 
 113   15:50   0.51   79.3    27   10.2   298    16.3   941.9    0.00 
 113   16:00   0.46   78.7    26    8.9   309    13.7   942.0    0.00 
 113   16:10   0.44   78.2    26    8.9   319    13.7   942.1    0.00 
 113   16:20   0.40   77.7    26    8.4   325    14.8   942.1    0.00 
 113   16:30   0.37   77.5    27    8.8   322    13.2   942.2    0.00 
 113   16:40   0.34   76.5    28   10.2   321    13.2   942.2    0.00 
 113   16:50   0.29   76.4    25    8.1   330    12.9   942.3    0.00 
 113   17:00   0.26   75.9    20    8.6   334    12.1   942.4    0.00 
 113   17:10   0.21   75.5    19    9.0   348    12.0   942.4    0.00 
 113   17:20   0.16   74.3    25    5.7     4    10.3   942.5    0.00 
 113   17:30   0.14   73.8    30    4.1    41     9.3   942.6    0.00 
 113   17:40   0.11   71.4    41    5.2    75    11.8   942.7    0.00 
 113   17:50   0.09   68.6    46    7.5   104     9.6   942.8    0.00 
 113   18:00   0.06   67.1    49    8.1   113    11.5   942.9    0.00 
 113   18:10   0.04   65.9    51    8.7   124    10.9   942.9    0.00 
 113   18:20   0.02   65.1    51    7.7   120    11.0   942.9    0.00 
 113   18:30   0.01   64.6    50    6.8   115     9.3   943.0    0.00 
 113   18:40   0.01   63.7    51    7.6   112    10.0   943.0    0.00 
 113   18:50   0.00   62.7    52    7.8   114    11.0   943.0    0.00 
 113   19:00   0.00   61.7    54    6.4   117     8.0   943.2    0.00 
 113   19:10   0.00   61.3    54    6.5   110     8.3   943.3    0.00 
 113   19:20   0.00   60.4    56    6.4   119     9.5   943.3    0.00 
 113   19:30   0.00   60.0    57    3.7   122     6.1   943.5    0.00 
 113   19:40   0.00   59.9    58    2.8   116     4.4   943.5    0.00 
 113   19:50   0.00   59.8    58    4.0   102     8.0   943.5    0.00 
 113   20:00   0.00   59.4    58    5.0    96     6.6   943.8    0.00 
 113   20:10   0.00   59.0    58    5.3    95     6.6   943.8    0.00 
 113   20:20   0.00   58.0    61    5.0    83     6.2   943.9    0.00 
 113   20:30   0.00   57.2    64    5.1    97     6.5   943.9    0.00 
 113   20:40   0.00   57.0    64    4.2    93     5.7   943.9    0.00 
 113   20:50   0.00   56.8    65    6.6   115     8.7   943.8    0.00 
 113   21:00   0.00   55.9    69    6.6   116     7.7   943.8    0.00 
 113   21:10   0.00   55.3    72    6.8   115     7.9   943.8    0.00 
 113   21:20   0.00   54.7    75    7.2   124     9.3   943.7    0.00 
 113   21:30   0.00   54.1    77    5.3   138     6.8   943.8    0.00 
 113   21:40   0.00   53.8    79    5.5   140     7.2   943.8    0.00 
 113   21:50   0.00   53.5    83    5.1   141     6.6   943.8    0.00 
 113   22:00   0.00   52.9    85    5.0   160     6.0   943.7    0.00 
 113   22:10   0.00   52.7    88    5.5   160     6.7   943.8    0.00 
 113   22:20   0.00   52.4    90    5.3   159     7.3   943.8    0.00 
 113   22:30   0.00   52.3    92    5.6   150     7.7   943.8    0.00 
 113   22:40   0.00   52.3    92    6.3   148     8.6   943.8    0.00 
 113   22:50   0.00   52.4    93    7.6   148     9.5   943.8    0.00 
 113   23:00   0.00   52.3    93    6.2   161     8.2   944.0    0.00 
 113   23:10   0.00   51.9    94    4.9   174     6.5   944.1    0.00 
 113   23:20   0.00   51.8    94    4.4   184     5.2   944.2    0.00 
 113   23:30   0.00   51.3    94    5.4   181     6.6   944.0    0.00 
 113   23:40   0.00   51.0    94    5.2   182     6.4   943.9    0.00 
 113   23:50   0.00   51.2    94    5.1   190     6.0   943.8    0.00 
 114    0:00   0.00   51.0    94    4.4   190     5.1   943.7    0.00 
 114    0:10   0.00   50.7    94    4.3   183     5.3   943.5    0.00 
 114    0:20   0.00   50.1    94    5.2   177     6.1   943.2    0.00 
 114    0:30   0.00   50.0    94    6.0   168     7.7   943.0    0.00 
 114    0:40   0.00   50.4    95    4.0   181     5.7   943.1    0.00 
 114    0:50   0.00   50.7    94    4.1   170     6.4   943.1    0.00 
 114    1:00   0.00   51.1    94    5.0   179     6.0   942.9    0.00 
 114    1:10   0.00   51.6    94    4.1   187     6.1   943.1    0.00 
 114    1:20   0.00   51.8    94    3.2   195     5.3   943.1    0.00 
 114    1:30   0.00   52.2    93    2.4   176     4.1   943.3    0.00 
 114    1:40   0.00   52.3    93    2.4   163     5.1   943.2    0.00 
 114    1:50   0.00   52.4    92    1.9   195     3.8   943.2    0.00 
 114    2:00   0.00   52.5    92    2.1   225     2.9   943.2    0.00 
 114    2:10   0.00   52.6    91    2.6   198     4.7   943.2    0.00 
 114    2:20   0.00   52.7    90    3.7   192     6.2   943.3    0.00 
 114    2:30   0.00   52.7    90    6.0   166     8.1   943.0    0.00 
 114    2:40   0.00   52.7    89    5.9   156     8.2   942.9    0.00 
 114    2:50   0.00   52.8    88    6.0   148     7.7   942.9    0.00 

Return to Motte Rimrock Reserve graphs page.


Western Regional Climate Center,wrcc@dri.edu